createdAt,value
2018-05-15T00:00:34.855Z,954.97
2018-05-15T00:01:34.789Z,955.01
2018-05-15T00:02:34.730Z,955.01
2018-05-15T00:03:34.723Z,955.00
2018-05-15T00:04:34.605Z,954.94
2018-05-15T00:05:34.544Z,954.96
2018-05-15T00:06:34.480Z,954.91
2018-05-15T00:07:34.419Z,954.95
2018-05-15T00:08:34.361Z,954.97
2018-05-15T00:09:34.296Z,954.98
2018-05-15T00:10:34.234Z,955.02
2018-05-15T00:11:34.170Z,954.99
2018-05-15T00:12:34.108Z,955.01
2018-05-15T00:13:34.050Z,955.02
2018-05-15T00:14:33.984Z,955.03
2018-05-15T00:15:33.922Z,955.04
2018-05-15T00:16:33.859Z,955.04
2018-05-15T00:17:33.797Z,955.05
2018-05-15T00:18:33.736Z,955.07
2018-05-15T00:19:33.674Z,955.07
2018-05-15T00:20:33.612Z,955.03
2018-05-15T00:21:33.549Z,955.07
2018-05-15T00:22:33.491Z,955.09
2018-05-15T00:23:33.423Z,955.07
2018-05-15T00:24:33.361Z,955.06
2018-05-15T00:25:33.300Z,955.05
2018-05-15T00:26:33.240Z,955.07
2018-05-15T00:27:33.176Z,955.08
2018-05-15T00:28:33.115Z,955.09
2018-05-15T00:29:33.052Z,955.07
2018-05-15T00:30:32.990Z,955.07
2018-05-15T00:31:32.928Z,955.13
2018-05-15T00:32:32.873Z,955.12
2018-05-15T00:33:32.804Z,955.11
2018-05-15T00:34:32.740Z,955.13
2018-05-15T00:35:32.678Z,955.08
2018-05-15T00:36:32.618Z,955.11
2018-05-15T00:37:32.554Z,955.05
2018-05-15T00:38:32.491Z,955.08
2018-05-15T00:39:32.431Z,955.06
2018-05-15T00:40:32.366Z,955.06
2018-05-15T00:41:32.305Z,955.07
2018-05-15T00:42:32.242Z,955.07
2018-05-15T00:43:32.185Z,955.09
2018-05-15T00:44:32.119Z,955.03
2018-05-15T00:45:32.056Z,955.07
2018-05-15T00:46:31.993Z,955.07
2018-05-15T00:47:31.936Z,955.06
2018-05-15T00:48:31.872Z,955.06
2018-05-15T00:49:31.809Z,955.06
2018-05-15T00:50:31.744Z,955.04
2018-05-15T00:51:31.685Z,955.05
2018-05-15T00:52:31.618Z,955.03
2018-05-15T00:53:31.557Z,955.04
2018-05-15T00:54:31.495Z,955.03
2018-05-15T00:55:31.431Z,955.03
2018-05-15T00:56:31.370Z,955.03
2018-05-15T00:57:31.308Z,955.05
2018-05-15T00:58:31.245Z,955.02
2018-05-15T00:59:31.184Z,955.01
2018-05-15T01:00:31.123Z,955.05
2018-05-15T01:01:31.129Z,955.04
2018-05-15T01:02:30.997Z,955.06
2018-05-15T01:03:30.934Z,955.08
2018-05-15T01:04:30.869Z,955.04
2018-05-15T01:05:30.809Z,955.07
2018-05-15T01:06:30.747Z,955.04
2018-05-15T01:07:30.685Z,955.00
2018-05-15T01:08:30.620Z,955.05
2018-05-15T01:09:30.560Z,955.02
2018-05-15T01:10:30.496Z,955.06
2018-05-15T01:11:30.434Z,955.02
2018-05-15T01:12:30.373Z,955.01
2018-05-15T01:13:30.310Z,955.06
2018-05-15T01:14:30.248Z,955.08
2018-05-15T01:15:30.186Z,955.04
2018-05-15T01:16:30.123Z,955.03
2018-05-15T01:17:30.061Z,955.08
2018-05-15T01:18:30.001Z,955.03
2018-05-15T01:19:29.936Z,955.07
2018-05-15T01:20:29.875Z,955.07
2018-05-15T01:21:29.811Z,955.07
2018-05-15T01:22:29.748Z,955.05
2018-05-15T01:23:29.687Z,955.06
2018-05-15T01:24:29.621Z,955.04
2018-05-15T01:25:29.564Z,955.09
2018-05-15T01:26:29.498Z,955.07
2018-05-15T01:27:29.442Z,955.11
2018-05-15T01:28:29.373Z,955.10
2018-05-15T01:29:29.312Z,955.10
2018-05-15T01:30:29.251Z,955.08
2018-05-15T01:31:29.187Z,955.08
2018-05-15T01:32:29.123Z,955.12
2018-05-15T01:33:29.061Z,955.08
2018-05-15T01:34:28.999Z,955.07
2018-05-15T01:35:28.938Z,955.08
2018-05-15T01:36:28.872Z,955.13
2018-05-15T01:37:28.812Z,955.08
2018-05-15T01:38:28.752Z,955.08
2018-05-15T01:39:28.688Z,955.10
2018-05-15T01:40:28.623Z,955.09
2018-05-15T01:41:28.561Z,955.13
2018-05-15T01:42:28.500Z,955.11
2018-05-15T01:43:28.440Z,955.08
2018-05-15T01:44:28.374Z,955.09
2018-05-15T01:45:28.310Z,955.11
2018-05-15T01:46:28.254Z,955.11
2018-05-15T01:47:28.195Z,955.14
2018-05-15T01:48:28.124Z,955.13
2018-05-15T01:49:28.067Z,955.12
2018-05-15T01:50:28.003Z,955.15
2018-05-15T01:51:27.937Z,955.12
2018-05-15T01:52:27.872Z,955.08
2018-05-15T01:53:27.812Z,955.07
2018-05-15T01:54:27.749Z,955.08
2018-05-15T01:55:27.693Z,955.03
2018-05-15T01:56:27.625Z,955.08
2018-05-15T01:57:27.560Z,955.09
2018-05-15T01:58:27.500Z,955.09
2018-05-15T01:59:27.435Z,955.12
2018-05-15T02:00:27.373Z,955.12
2018-05-15T02:01:27.315Z,955.12
2018-05-15T02:02:27.247Z,955.12
2018-05-15T02:03:27.185Z,955.15
2018-05-15T02:04:27.122Z,955.12
2018-05-15T02:05:27.061Z,955.10
2018-05-15T02:06:26.998Z,955.13
2018-05-15T02:07:26.938Z,955.14
2018-05-15T02:08:26.871Z,955.17
2018-05-15T02:09:26.809Z,955.17
2018-05-15T02:10:26.751Z,955.12
2018-05-15T02:11:26.681Z,955.18
2018-05-15T02:12:26.624Z,955.18
2018-05-15T02:13:26.559Z,955.17
2018-05-15T02:14:26.497Z,955.19
2018-05-15T02:15:26.433Z,955.22
2018-05-15T02:16:26.371Z,955.23
2018-05-15T02:17:26.310Z,955.26
2018-05-15T02:18:26.247Z,955.30
2018-05-15T02:19:26.187Z,955.29
2018-05-15T02:20:26.120Z,955.31
2018-05-15T02:21:26.056Z,955.31
2018-05-15T02:22:25.995Z,955.30
2018-05-15T02:23:25.934Z,955.29
2018-05-15T02:24:25.870Z,955.27
2018-05-15T02:25:25.812Z,955.28
2018-05-15T02:26:25.745Z,955.30
2018-05-15T02:27:25.683Z,955.26
2018-05-15T02:28:25.618Z,955.29
2018-05-15T02:29:25.557Z,955.25
2018-05-15T02:30:25.578Z,955.26
2018-05-15T02:31:25.433Z,955.25
2018-05-15T02:32:25.369Z,955.24
2018-05-15T02:33:25.305Z,955.27
2018-05-15T02:34:25.243Z,955.29
2018-05-15T02:35:25.180Z,955.23
2018-05-15T02:36:25.117Z,955.27
2018-05-15T02:37:25.055Z,955.29
2018-05-15T02:38:24.999Z,955.31
2018-05-15T02:39:24.932Z,955.29
2018-05-15T02:40:24.868Z,955.30
2018-05-15T02:41:24.803Z,955.34
2018-05-15T02:42:24.742Z,955.33
2018-05-15T02:43:24.676Z,955.39
2018-05-15T02:44:24.614Z,955.43
2018-05-15T02:45:24.553Z,955.37
2018-05-15T02:46:24.488Z,955.38
2018-05-15T02:47:24.424Z,955.36
2018-05-15T02:48:24.363Z,955.36
2018-05-15T02:49:24.301Z,955.37
2018-05-15T02:50:24.242Z,955.40
2018-05-15T02:51:24.172Z,955.42
2018-05-15T02:52:24.112Z,955.45
2018-05-15T02:53:24.052Z,955.43
2018-05-15T02:54:23.989Z,955.49
2018-05-15T02:55:23.923Z,955.52
2018-05-15T02:56:23.860Z,955.48
2018-05-15T02:57:23.799Z,955.50
2018-05-15T02:58:23.736Z,955.50
2018-05-15T02:59:23.672Z,955.46
2018-05-15T03:00:23.610Z,955.45
2018-05-15T03:01:23.558Z,955.46
2018-05-15T03:02:23.485Z,955.43
2018-05-15T03:03:23.426Z,955.43
2018-05-15T03:04:23.357Z,955.42
2018-05-15T03:05:23.294Z,955.42
2018-05-15T03:06:23.233Z,955.41
2018-05-15T03:07:23.169Z,955.43
2018-05-15T03:08:23.111Z,955.43
2018-05-15T03:09:23.040Z,955.44
2018-05-15T03:10:22.981Z,955.47
2018-05-15T03:11:22.916Z,955.45
2018-05-15T03:12:22.859Z,955.46
2018-05-15T03:13:22.796Z,955.46
2018-05-15T03:14:22.734Z,955.43
2018-05-15T03:15:22.666Z,955.44
2018-05-15T03:16:22.610Z,955.44
2018-05-15T03:17:22.536Z,955.48
2018-05-15T03:18:22.483Z,955.51
2018-05-15T03:19:22.415Z,955.54
2018-05-15T03:20:22.351Z,955.50
2018-05-15T03:21:22.288Z,955.51
2018-05-15T03:22:22.228Z,955.50
2018-05-15T03:23:22.164Z,955.55
2018-05-15T03:24:22.101Z,955.55
2018-05-15T03:25:22.039Z,955.54
2018-05-15T03:26:21.977Z,955.58
2018-05-15T03:27:21.912Z,955.56
2018-05-15T03:28:21.852Z,955.55
2018-05-15T03:29:21.784Z,955.55
2018-05-15T03:30:21.725Z,955.57
2018-05-15T03:31:21.663Z,955.55
2018-05-15T03:32:21.600Z,955.59
2018-05-15T03:33:21.541Z,955.58
2018-05-15T03:34:21.478Z,955.57
2018-05-15T03:35:21.413Z,955.63
2018-05-15T03:36:21.352Z,955.65
2018-05-15T03:37:21.286Z,955.66
2018-05-15T03:38:21.222Z,955.63
2018-05-15T03:39:21.160Z,955.63
2018-05-15T03:40:21.098Z,955.66
2018-05-15T03:41:21.042Z,955.66
2018-05-15T03:42:20.972Z,955.67
2018-05-15T03:43:20.908Z,955.70
2018-05-15T03:44:20.847Z,955.70
2018-05-15T03:45:20.785Z,955.66
2018-05-15T03:46:20.722Z,955.60
2018-05-15T03:47:20.659Z,955.67
2018-05-15T03:48:20.598Z,955.66
2018-05-15T03:49:20.532Z,955.70
2018-05-15T03:50:20.473Z,955.69
2018-05-15T03:51:20.408Z,955.70
2018-05-15T03:52:20.345Z,955.70
2018-05-15T03:53:20.283Z,955.73
2018-05-15T03:54:20.218Z,955.76
2018-05-15T03:55:20.156Z,955.79
2018-05-15T03:56:20.095Z,955.79
2018-05-15T03:57:20.032Z,955.83
2018-05-15T03:58:19.970Z,955.82
2018-05-15T03:59:19.905Z,955.87
2018-05-15T04:00:19.866Z,955.85
2018-05-15T04:01:19.780Z,955.84
2018-05-15T04:02:19.732Z,955.89
2018-05-15T04:03:19.653Z,955.86
2018-05-15T04:04:19.593Z,955.89
2018-05-15T04:05:19.532Z,955.87
2018-05-15T04:06:19.467Z,955.90
2018-05-15T04:07:19.403Z,955.91
2018-05-15T04:08:19.342Z,955.91
2018-05-15T04:09:19.284Z,955.88
2018-05-15T04:10:19.219Z,955.93
2018-05-15T04:11:19.155Z,955.93
2018-05-15T04:12:19.090Z,955.92
2018-05-15T04:13:19.030Z,955.90
2018-05-15T04:14:18.966Z,955.88
2018-05-15T04:15:18.904Z,955.94
2018-05-15T04:16:18.840Z,955.91
2018-05-15T04:17:18.778Z,955.93
2018-05-15T04:18:18.714Z,955.94
2018-05-15T04:19:18.653Z,955.92
2018-05-15T04:20:18.590Z,955.96
2018-05-15T04:21:18.527Z,955.95
2018-05-15T04:22:18.465Z,955.98
2018-05-15T04:23:18.403Z,956.01
2018-05-15T04:24:18.337Z,956.02
2018-05-15T04:25:18.279Z,956.02
2018-05-15T04:26:18.214Z,956.03
2018-05-15T04:27:18.151Z,956.05
2018-05-15T04:28:18.195Z,956.03
2018-05-15T04:29:18.028Z,956.04
2018-05-15T04:30:17.963Z,956.06
2018-05-15T04:31:17.900Z,956.04
2018-05-15T04:32:17.835Z,956.06
2018-05-15T04:33:17.775Z,956.08
2018-05-15T04:34:17.723Z,956.09
2018-05-15T04:35:17.731Z,956.11
2018-05-15T04:36:17.586Z,956.13
2018-05-15T04:37:17.527Z,956.13
2018-05-15T04:38:17.461Z,956.20
2018-05-15T04:39:17.398Z,956.17
2018-05-15T04:40:17.337Z,956.17
2018-05-15T04:41:17.275Z,956.19
2018-05-15T04:42:17.213Z,956.22
2018-05-15T04:43:17.148Z,956.25
2018-05-15T04:44:17.083Z,956.29
2018-05-15T04:45:17.029Z,956.28
2018-05-15T04:46:16.961Z,956.27
2018-05-15T04:47:16.897Z,956.20
2018-05-15T04:48:16.836Z,956.23
2018-05-15T04:49:16.797Z,956.26
2018-05-15T04:50:16.710Z,956.20
2018-05-15T04:51:16.649Z,956.21
2018-05-15T04:52:16.585Z,956.22
2018-05-15T04:53:16.525Z,956.24
2018-05-15T04:54:16.461Z,956.25
2018-05-15T04:55:16.397Z,956.26
2018-05-15T04:56:16.336Z,956.27
2018-05-15T04:57:16.285Z,956.30
2018-05-15T04:58:16.207Z,956.26
2018-05-15T04:59:16.146Z,956.25
2018-05-15T05:00:16.084Z,956.29
2018-05-15T05:01:16.021Z,956.29
2018-05-15T05:02:15.959Z,956.27
2018-05-15T05:03:15.896Z,956.23
2018-05-15T05:04:15.834Z,956.23
2018-05-15T05:05:15.776Z,956.27
2018-05-15T05:06:15.709Z,956.26
2018-05-15T05:07:15.647Z,956.27
2018-05-15T05:08:15.584Z,956.32
2018-05-15T05:09:15.520Z,956.34
2018-05-15T05:10:15.463Z,956.34
2018-05-15T05:11:15.397Z,956.40
2018-05-15T05:12:15.334Z,956.40
2018-05-15T05:13:15.271Z,956.41
2018-05-15T05:14:15.209Z,956.44
2018-05-15T05:15:15.147Z,956.39
2018-05-15T05:16:15.083Z,956.38
2018-05-15T05:17:15.022Z,956.37
2018-05-15T05:18:14.960Z,956.41
2018-05-15T05:19:14.904Z,956.41
2018-05-15T05:20:14.835Z,956.42
2018-05-15T05:21:14.776Z,956.43
2018-05-15T05:22:14.710Z,956.43
2018-05-15T05:23:14.648Z,956.44
2018-05-15T05:24:14.585Z,956.44
2018-05-15T05:25:14.522Z,956.44
2018-05-15T05:26:14.465Z,956.43
2018-05-15T05:27:14.429Z,956.48
2018-05-15T05:28:14.339Z,956.47
2018-05-15T05:29:14.289Z,956.46
2018-05-15T05:30:14.210Z,956.51
2018-05-15T05:31:14.154Z,956.55
2018-05-15T05:32:14.085Z,956.55
2018-05-15T05:33:14.042Z,956.52
2018-05-15T05:34:13.961Z,956.55
2018-05-15T05:35:13.898Z,956.55
2018-05-15T05:36:13.837Z,956.56
2018-05-15T05:37:13.772Z,956.53
2018-05-15T05:38:13.710Z,956.57
2018-05-15T05:39:13.648Z,956.54
2018-05-15T05:40:13.672Z,956.57
2018-05-15T05:41:13.530Z,956.60
2018-05-15T05:42:13.468Z,956.63
2018-05-15T05:43:13.401Z,956.64
2018-05-15T05:44:13.338Z,956.63
2018-05-15T05:45:13.271Z,956.63
2018-05-15T05:46:13.281Z,956.65
2018-05-15T05:47:13.150Z,956.66
2018-05-15T05:48:13.087Z,956.69
2018-05-15T05:49:13.027Z,956.69
2018-05-15T05:50:12.964Z,956.69
2018-05-15T05:51:12.899Z,956.71
2018-05-15T05:52:12.840Z,956.72
2018-05-15T05:53:12.776Z,956.71
2018-05-15T05:54:12.712Z,956.73
2018-05-15T05:55:12.654Z,956.76
2018-05-15T05:56:12.589Z,956.79
2018-05-15T05:57:12.527Z,956.84
2018-05-15T05:58:12.466Z,956.81
2018-05-15T05:59:12.460Z,956.87
2018-05-15T06:00:12.340Z,956.94
2018-05-15T06:01:12.280Z,956.91
2018-05-15T06:02:12.220Z,956.93
2018-05-15T06:03:12.154Z,956.93
2018-05-15T06:04:12.527Z,956.93
2018-05-15T06:05:12.028Z,956.93
2018-05-15T06:06:11.968Z,956.94
2018-05-15T06:07:11.906Z,956.96
2018-05-15T06:08:11.843Z,956.97
2018-05-15T06:09:11.784Z,956.97
2018-05-15T06:10:11.718Z,956.96
2018-05-15T06:11:11.659Z,956.99
2018-05-15T06:12:11.594Z,956.99
2018-05-15T06:13:11.533Z,957.04
2018-05-15T06:14:11.484Z,957.02
2018-05-15T06:15:11.408Z,957.03
2018-05-15T06:16:11.348Z,957.00
2018-05-15T06:17:11.285Z,957.04
2018-05-15T06:18:11.223Z,957.06
2018-05-15T06:19:11.158Z,957.09
2018-05-15T06:20:11.099Z,957.13
2018-05-15T06:21:11.036Z,957.13
2018-05-15T06:22:10.973Z,957.15
2018-05-15T06:23:10.908Z,957.16
2018-05-15T06:24:10.853Z,957.11
2018-05-15T06:25:10.790Z,957.12
2018-05-15T06:26:10.726Z,957.11
2018-05-15T06:27:10.664Z,957.10
2018-05-15T06:28:10.599Z,957.07
2018-05-15T06:29:10.538Z,957.10
2018-05-15T06:30:10.477Z,957.08
2018-05-15T06:31:10.413Z,957.05
2018-05-15T06:32:10.351Z,957.07
2018-05-15T06:33:10.289Z,957.05
2018-05-15T06:34:10.228Z,957.07
2018-05-15T06:35:10.164Z,957.09
2018-05-15T06:36:10.102Z,957.04
2018-05-15T06:37:10.046Z,957.11
2018-05-15T06:38:09.975Z,957.10
2018-05-15T06:39:09.922Z,957.08
2018-05-15T06:40:09.860Z,957.11
2018-05-15T06:41:09.790Z,957.06
2018-05-15T06:42:09.731Z,957.06
2018-05-15T06:43:09.667Z,956.99
2018-05-15T06:44:09.606Z,957.02
2018-05-15T06:45:09.546Z,957.01
2018-05-15T06:46:09.561Z,956.98
2018-05-15T06:47:09.419Z,956.97
2018-05-15T06:48:09.362Z,956.98
2018-05-15T06:49:09.298Z,957.02
2018-05-15T06:50:09.235Z,957.02
2018-05-15T06:51:09.171Z,957.05
2018-05-15T06:52:09.111Z,957.03
2018-05-15T06:53:09.048Z,957.01
2018-05-15T06:54:08.996Z,957.03
2018-05-15T06:55:08.924Z,957.01
2018-05-15T06:56:08.861Z,957.09
2018-05-15T06:57:08.798Z,957.10
2018-05-15T06:58:08.737Z,957.10
2018-05-15T06:59:08.674Z,957.11
2018-05-15T07:00:08.611Z,957.08
2018-05-15T07:01:08.552Z,957.10
2018-05-15T07:02:08.490Z,957.13
2018-05-15T07:03:08.428Z,957.11
2018-05-15T07:04:08.363Z,957.17
2018-05-15T07:05:08.306Z,957.22
2018-05-15T07:06:08.238Z,957.22
2018-05-15T07:07:08.322Z,957.23
2018-05-15T07:08:08.119Z,957.23
2018-05-15T07:09:08.056Z,957.24
2018-05-15T07:10:07.998Z,957.26
2018-05-15T07:11:07.931Z,957.30
2018-05-15T07:12:07.872Z,957.32
2018-05-15T07:13:07.811Z,957.32
2018-05-15T07:14:07.757Z,957.33
2018-05-15T07:15:07.709Z,957.34
2018-05-15T07:16:07.630Z,957.32
2018-05-15T07:17:07.565Z,957.33
2018-05-15T07:18:07.501Z,957.27
2018-05-15T07:19:07.442Z,957.33
2018-05-15T07:20:07.379Z,957.31
2018-05-15T07:21:07.328Z,957.30
2018-05-15T07:22:07.256Z,957.30
2018-05-15T07:23:07.194Z,957.29
2018-05-15T07:24:07.133Z,957.27
2018-05-15T07:25:07.070Z,957.30
2018-05-15T07:26:07.022Z,957.31
2018-05-15T07:27:06.946Z,957.32
2018-05-15T07:28:06.887Z,957.31
2018-05-15T07:29:06.826Z,957.32
2018-05-15T07:30:06.766Z,957.27
2018-05-15T07:31:06.702Z,957.25
2018-05-15T07:32:06.641Z,957.24
2018-05-15T07:33:06.659Z,957.27
2018-05-15T07:34:06.523Z,957.26
2018-05-15T07:35:06.459Z,957.25
2018-05-15T07:36:06.398Z,957.29
2018-05-15T07:37:06.336Z,957.33
2018-05-15T07:38:06.275Z,957.33
2018-05-15T07:39:06.213Z,957.36
2018-05-15T07:40:06.152Z,957.34
2018-05-15T07:41:06.091Z,957.33
2018-05-15T07:42:06.035Z,957.34
2018-05-15T07:43:05.969Z,957.31
2018-05-15T07:44:05.908Z,957.33
2018-05-15T07:45:05.847Z,957.39
2018-05-15T07:46:05.785Z,957.38
2018-05-15T07:47:05.723Z,957.35
2018-05-15T07:48:05.681Z,957.37
2018-05-15T07:49:05.603Z,957.36
2018-05-15T07:50:05.543Z,957.34
2018-05-15T07:51:05.479Z,957.35
2018-05-15T07:52:05.420Z,957.38
2018-05-15T07:53:05.408Z,957.39
2018-05-15T07:54:05.300Z,957.34
2018-05-15T07:55:05.236Z,957.41
2018-05-15T07:56:05.175Z,957.38
2018-05-15T07:57:05.128Z,957.38
2018-05-15T07:58:05.055Z,957.49
2018-05-15T07:59:04.994Z,957.49
2018-05-15T08:00:04.933Z,957.49
2018-05-15T08:01:04.873Z,957.47
2018-05-15T08:02:04.910Z,957.48
2018-05-15T08:03:04.757Z,957.42
2018-05-15T08:04:04.689Z,957.46
2018-05-15T08:05:04.630Z,957.45
2018-05-15T08:06:04.571Z,957.45
2018-05-15T08:07:04.509Z,957.38
2018-05-15T08:08:04.448Z,957.37
2018-05-15T08:09:04.388Z,957.37
2018-05-15T08:10:04.329Z,957.37
2018-05-15T08:11:04.267Z,957.32
2018-05-15T08:12:04.213Z,957.30
2018-05-15T08:13:04.148Z,957.30
2018-05-15T08:14:04.086Z,957.32
2018-05-15T08:15:04.025Z,957.37
2018-05-15T08:16:03.967Z,957.31
2018-05-15T08:17:03.903Z,957.35
2018-05-15T08:18:03.842Z,957.40
2018-05-15T08:19:03.784Z,957.37
2018-05-15T08:20:03.724Z,957.38
2018-05-15T08:21:03.662Z,957.44
2018-05-15T08:22:03.600Z,957.38
2018-05-15T08:23:03.538Z,957.45
2018-05-15T08:24:03.481Z,957.47
2018-05-15T08:25:03.422Z,957.47
2018-05-15T08:26:03.359Z,957.49
2018-05-15T08:27:03.299Z,957.50
2018-05-15T08:28:03.240Z,957.49
2018-05-15T08:29:03.179Z,957.46
2018-05-15T08:30:03.125Z,957.47
2018-05-15T08:31:03.059Z,957.46
2018-05-15T08:32:02.999Z,957.47
2018-05-15T08:33:02.938Z,957.49
2018-05-15T08:34:02.885Z,957.49
2018-05-15T08:35:02.818Z,957.48
2018-05-15T08:36:02.756Z,957.45
2018-05-15T08:37:02.697Z,957.47
2018-05-15T08:38:02.636Z,957.48
2018-05-15T08:39:02.575Z,957.51
2018-05-15T08:40:02.520Z,957.52
2018-05-15T08:41:02.457Z,957.49
2018-05-15T08:42:02.401Z,957.58
2018-05-15T08:43:02.335Z,957.53
2018-05-15T08:44:02.282Z,957.56
2018-05-15T08:45:02.215Z,957.57
2018-05-15T08:46:02.157Z,957.52
2018-05-15T08:47:02.096Z,957.53
2018-05-15T08:48:02.037Z,957.54
2018-05-15T08:49:01.982Z,957.53
2018-05-15T08:50:01.918Z,957.57
2018-05-15T08:51:01.856Z,957.58
2018-05-15T08:52:01.799Z,957.63
2018-05-15T08:53:01.736Z,957.61
2018-05-15T08:54:01.680Z,957.61
2018-05-15T08:55:01.617Z,957.55
2018-05-15T08:56:01.557Z,957.55
2018-05-15T08:57:01.498Z,957.55
2018-05-15T08:58:01.439Z,957.57
2018-05-15T08:59:01.379Z,957.63
2018-05-15T09:00:01.319Z,957.57
2018-05-15T09:01:01.259Z,957.59
2018-05-15T09:02:01.199Z,957.57
2018-05-15T09:03:01.138Z,957.53
2018-05-15T09:04:01.077Z,957.54
2018-05-15T09:05:01.021Z,957.55
2018-05-15T09:06:00.959Z,957.57
2018-05-15T09:07:00.899Z,957.63
2018-05-15T09:08:00.840Z,957.66
2018-05-15T09:09:00.781Z,957.61
2018-05-15T09:10:00.727Z,957.62
2018-05-15T09:11:00.661Z,957.58
2018-05-15T09:12:00.606Z,957.54
2018-05-15T09:13:00.543Z,957.50
2018-05-15T09:14:00.486Z,957.53
2018-05-15T09:15:00.423Z,957.60
2018-05-15T09:16:00.368Z,957.61
2018-05-15T09:17:00.307Z,957.56
2018-05-15T09:18:00.248Z,957.67
2018-05-15T09:19:00.186Z,957.56
2018-05-15T09:20:00.133Z,957.58
2018-05-15T09:21:00.067Z,957.58
2018-05-15T09:22:00.012Z,957.60
2018-05-15T09:22:59.947Z,957.61
2018-05-15T09:23:59.890Z,957.57
2018-05-15T09:24:59.831Z,957.59
2018-05-15T09:25:59.771Z,957.58
2018-05-15T09:26:59.717Z,957.58
2018-05-15T09:27:59.651Z,957.62
2018-05-15T09:28:59.607Z,957.61
2018-05-15T09:29:59.537Z,957.58
2018-05-15T09:30:59.474Z,957.53
2018-05-15T09:31:59.412Z,957.53
2018-05-15T09:32:59.356Z,957.51
2018-05-15T09:33:59.297Z,957.54
2018-05-15T09:34:59.240Z,957.52
2018-05-15T09:35:59.179Z,957.51
2018-05-15T09:36:59.144Z,957.58
2018-05-15T09:37:59.061Z,957.65
2018-05-15T09:38:59.002Z,957.57
2018-05-15T09:39:58.943Z,957.53
2018-05-15T09:40:58.885Z,957.57
2018-05-15T09:41:58.827Z,957.50
2018-05-15T09:42:58.768Z,957.54
2018-05-15T09:43:58.711Z,957.47
2018-05-15T09:44:58.653Z,957.50
2018-05-15T09:45:58.598Z,957.51
2018-05-15T09:46:58.567Z,957.52
2018-05-15T09:47:58.485Z,957.51
2018-05-15T09:48:58.422Z,957.49
2018-05-15T09:49:58.366Z,957.52
2018-05-15T09:50:58.306Z,957.47
2018-05-15T09:51:58.249Z,957.47
2018-05-15T09:52:58.191Z,957.45
2018-05-15T09:53:58.132Z,957.54
2018-05-15T09:54:58.075Z,957.55
2018-05-15T09:55:58.020Z,957.48
2018-05-15T09:56:57.960Z,957.50
2018-05-15T09:57:57.903Z,957.52
2018-05-15T09:58:57.846Z,957.52
2018-05-15T09:59:57.791Z,957.52
2018-05-15T10:00:57.731Z,957.54
2018-05-15T10:01:57.675Z,957.55
2018-05-15T10:02:57.616Z,957.48
2018-05-15T10:03:57.561Z,957.48
2018-05-15T10:04:57.504Z,957.48
2018-05-15T10:05:57.449Z,957.45
2018-05-15T10:06:57.392Z,957.47
2018-05-15T10:07:57.370Z,957.44
2018-05-15T10:08:57.280Z,957.45
2018-05-15T10:09:57.228Z,957.52
2018-05-15T10:10:57.168Z,957.44
2018-05-15T10:11:57.111Z,957.49
2018-05-15T10:12:57.057Z,957.48
2018-05-15T10:13:57.002Z,957.49
2018-05-15T10:14:56.945Z,957.41
2018-05-15T10:15:56.889Z,957.42
2018-05-15T10:16:56.835Z,957.41
2018-05-15T10:17:56.779Z,957.38
2018-05-15T10:18:56.724Z,957.39
2018-05-15T10:19:56.760Z,957.45
2018-05-15T10:20:56.612Z,957.39
2018-05-15T10:21:56.556Z,957.43
2018-05-15T10:22:56.499Z,957.40
2018-05-15T10:23:56.446Z,957.40
2018-05-15T10:24:56.389Z,957.36
2018-05-15T10:25:56.337Z,957.38
2018-05-15T10:26:56.279Z,957.40
2018-05-15T10:27:56.225Z,957.39
2018-05-15T10:28:56.168Z,957.35
2018-05-15T10:29:56.203Z,957.34
2018-05-15T10:30:56.054Z,957.37
2018-05-15T10:31:55.999Z,957.33
2018-05-15T10:32:55.943Z,957.29
2018-05-15T10:33:55.886Z,957.29
2018-05-15T10:34:55.830Z,957.28
2018-05-15T10:35:55.774Z,957.31
2018-05-15T10:36:55.718Z,957.29
2018-05-15T10:37:55.661Z,957.24
2018-05-15T10:38:55.603Z,957.23
2018-05-15T10:39:55.549Z,957.23
2018-05-15T10:40:55.491Z,957.20
2018-05-15T10:41:55.433Z,957.22
2018-05-15T10:42:55.376Z,957.22
2018-05-15T10:43:55.379Z,957.21
2018-05-15T10:44:55.265Z,957.25
2018-05-15T10:45:55.211Z,957.24
2018-05-15T10:46:55.152Z,957.32
2018-05-15T10:47:55.095Z,957.28
2018-05-15T10:48:55.040Z,957.25
2018-05-15T10:49:54.984Z,957.20
2018-05-15T10:50:54.929Z,957.15
2018-05-15T10:51:54.874Z,957.13
2018-05-15T10:52:54.819Z,957.18
2018-05-15T10:53:54.768Z,957.12
2018-05-15T10:54:54.707Z,957.11
2018-05-15T10:55:54.655Z,957.13
2018-05-15T10:56:54.889Z,957.17
2018-05-15T10:57:54.544Z,957.07
2018-05-15T10:58:54.490Z,957.04
2018-05-15T10:59:54.436Z,957.00
2018-05-15T11:00:54.387Z,957.04
2018-05-15T11:01:54.332Z,957.00
2018-05-15T11:02:54.270Z,957.01
2018-05-15T11:03:54.216Z,956.95
2018-05-15T11:04:54.166Z,956.99
2018-05-15T11:05:54.105Z,956.96
2018-05-15T11:06:54.059Z,957.09
2018-05-15T11:07:53.996Z,957.05
2018-05-15T11:08:53.940Z,957.10
2018-05-15T11:09:53.885Z,957.11
2018-05-15T11:10:53.828Z,957.02
2018-05-15T11:11:53.776Z,957.12
2018-05-15T11:12:53.812Z,956.99
2018-05-15T11:13:53.665Z,956.99
2018-05-15T11:14:53.606Z,956.94
2018-05-15T11:15:53.550Z,956.89
2018-05-15T11:16:53.499Z,956.91
2018-05-15T11:17:53.441Z,956.88
2018-05-15T11:18:53.396Z,956.85
2018-05-15T11:19:53.326Z,956.84
2018-05-15T11:20:53.270Z,956.84
2018-05-15T11:21:53.214Z,956.85
2018-05-15T11:22:53.156Z,956.80
2018-05-15T11:23:53.102Z,956.81
2018-05-15T11:24:53.044Z,956.88
2018-05-15T11:25:52.988Z,956.83
2018-05-15T11:26:52.929Z,956.77
2018-05-15T11:27:52.874Z,956.78
2018-05-15T11:28:52.815Z,956.87
2018-05-15T11:29:52.760Z,956.90
2018-05-15T11:30:52.702Z,956.88
2018-05-15T11:31:52.645Z,956.79
2018-05-15T11:32:52.590Z,956.83
2018-05-15T11:33:52.532Z,956.86
2018-05-15T11:34:52.473Z,956.81
2018-05-15T11:35:52.445Z,956.80
2018-05-15T11:36:52.357Z,956.80
2018-05-15T11:37:52.302Z,956.80
2018-05-15T11:38:52.241Z,956.80
2018-05-15T11:39:52.184Z,956.83
2018-05-15T11:40:52.127Z,956.84
2018-05-15T11:41:52.129Z,956.79
2018-05-15T11:42:52.011Z,956.70
2018-05-15T11:43:51.953Z,956.70
2018-05-15T11:44:51.896Z,956.72
2018-05-15T11:45:51.845Z,956.66
2018-05-15T11:46:51.790Z,956.71
2018-05-15T11:47:51.847Z,956.69
2018-05-15T11:48:52.380Z,956.63
2018-05-15T11:49:52.383Z,956.71
2018-05-15T11:50:52.035Z,956.65
2018-05-15T11:51:52.584Z,956.68
2018-05-15T11:52:52.073Z,956.75
2018-05-15T11:53:51.489Z,956.61
2018-05-15T11:54:51.314Z,956.80
2018-05-15T11:55:51.340Z,956.74
2018-05-15T11:56:51.196Z,956.74
2018-05-15T11:57:51.246Z,956.70
2018-05-15T11:58:51.081Z,956.72
2018-05-15T11:59:51.103Z,956.73
2018-05-15T12:00:50.963Z,956.81
2018-05-15T12:01:50.907Z,956.72
2018-05-15T12:02:50.869Z,956.71
2018-05-15T12:03:50.953Z,956.69
2018-05-15T12:04:50.730Z,956.73
2018-05-15T12:05:50.669Z,956.67
2018-05-15T12:06:50.612Z,956.68
2018-05-15T12:07:50.555Z,956.78
2018-05-15T12:08:50.498Z,956.68
2018-05-15T12:09:50.437Z,956.62
2018-05-15T12:10:50.378Z,956.67
2018-05-15T12:11:50.324Z,956.65
2018-05-15T12:12:50.278Z,956.67
2018-05-15T12:13:50.202Z,956.74
2018-05-15T12:14:50.146Z,956.73
2018-05-15T12:15:50.086Z,956.78
2018-05-15T12:16:50.026Z,956.76
2018-05-15T12:17:49.969Z,956.74
2018-05-15T12:18:49.912Z,956.73
2018-05-15T12:19:49.850Z,956.68
2018-05-15T12:20:49.793Z,956.64
2018-05-15T12:21:49.740Z,956.72
2018-05-15T12:22:49.674Z,956.79
2018-05-15T12:23:49.616Z,956.78
2018-05-15T12:24:49.560Z,956.80
2018-05-15T12:25:49.499Z,956.82
2018-05-15T12:26:49.441Z,956.89
2018-05-15T12:27:49.382Z,956.86